sensor_id;sensor_type;location;lat;lon;timestamp;P1;durP1;ratioP1;P2;durP2;ratioP2
46941;SDS011;32676;52.630;4.896;2023-06-26T00:01:43;15.10;;;5.75;;
46941;SDS011;32676;52.630;4.896;2023-06-26T00:04:09;8.90;;;6.05;;
46941;SDS011;32676;52.630;4.896;2023-06-26T00:06:39;8.35;;;5.90;;
46941;SDS011;32676;52.630;4.896;2023-06-26T00:09:05;14.43;;;7.07;;
46941;SDS011;32676;52.630;4.896;2023-06-26T00:11:32;9.68;;;6.38;;
46941;SDS011;32676;52.630;4.896;2023-06-26T00:13:59;8.18;;;6.82;;
46941;SDS011;32676;52.630;4.896;2023-06-26T00:16:27;7.93;;;6.35;;
46941;SDS011;32676;52.630;4.896;2023-06-26T00:18:56;10.30;;;5.72;;
46941;SDS011;32676;52.630;4.896;2023-06-26T00:21:23;22.02;;;7.03;;
46941;SDS011;32676;52.630;4.896;2023-06-26T00:23:50;9.18;;;5.93;;
46941;SDS011;32676;52.630;4.896;2023-06-26T00:26:16;14.80;;;5.22;;
46941;SDS011;32676;52.630;4.896;2023-06-26T00:28:43;7.78;;;5.50;;
46941;SDS011;32676;52.630;4.896;2023-06-26T00:31:09;8.55;;;4.70;;
46941;SDS011;32676;52.630;4.896;2023-06-26T00:33:37;6.82;;;4.35;;
46941;SDS011;32676;52.630;4.896;2023-06-26T00:36:04;6.97;;;4.70;;
46941;SDS011;32676;52.630;4.896;2023-06-26T00:38:30;10.60;;;3.75;;
46941;SDS011;32676;52.630;4.896;2023-06-26T00:40:56;9.98;;;3.90;;
46941;SDS011;32676;52.630;4.896;2023-06-26T00:43:23;11.38;;;4.78;;
46941;SDS011;32676;52.630;4.896;2023-06-26T00:45:49;10.73;;;3.90;;
46941;SDS011;32676;52.630;4.896;2023-06-26T00:48:16;8.50;;;4.45;;
46941;SDS011;32676;52.630;4.896;2023-06-26T00:50:45;6.40;;;4.25;;
46941;SDS011;32676;52.630;4.896;2023-06-26T00:53:11;6.80;;;3.70;;
46941;SDS011;32676;52.630;4.896;2023-06-26T00:55:38;9.48;;;3.90;;
46941;SDS011;32676;52.630;4.896;2023-06-26T00:58:05;4.70;;;3.30;;
46941;SDS011;32676;52.630;4.896;2023-06-26T01:00:31;5.30;;;3.17;;
46941;SDS011;32676;52.630;4.896;2023-06-26T01:02:58;8.48;;;3.67;;
46941;SDS011;32676;52.630;4.896;2023-06-26T01:05:24;8.27;;;3.90;;
46941;SDS011;32676;52.630;4.896;2023-06-26T01:07:53;12.77;;;4.97;;
46941;SDS011;32676;52.630;4.896;2023-06-26T01:10:20;8.10;;;4.47;;
46941;SDS011;32676;52.630;4.896;2023-06-26T01:12:47;10.68;;;4.22;;
46941;SDS011;32676;52.630;4.896;2023-06-26T01:15:13;8.50;;;4.25;;
46941;SDS011;32676;52.630;4.896;2023-06-26T01:17:40;9.88;;;4.07;;
46941;SDS011;32676;52.630;4.896;2023-06-26T01:20:10;9.23;;;3.85;;
46941;SDS011;32676;52.630;4.896;2023-06-26T01:22:38;16.02;;;5.10;;
46941;SDS011;32676;52.630;4.896;2023-06-26T01:25:15;11.25;;;4.85;;
46941;SDS011;32676;52.630;4.896;2023-06-26T01:28:05;13.18;;;4.53;;
46941;SDS011;32676;52.630;4.896;2023-06-26T01:30:32;11.20;;;4.82;;
46941;SDS011;32676;52.630;4.896;2023-06-26T01:33:00;12.52;;;4.60;;
46941;SDS011;32676;52.630;4.896;2023-06-26T01:35:28;8.15;;;4.57;;
46941;SDS011;32676;52.630;4.896;2023-06-26T01:40:40;15.23;;;4.63;;
46941;SDS011;32676;52.630;4.896;2023-06-26T01:43:10;16.20;;;5.22;;
46941;SDS011;32676;52.630;4.896;2023-06-26T01:45:45;21.13;;;5.95;;
46941;SDS011;32676;52.630;4.896;2023-06-26T01:48:14;11.23;;;4.57;;
46941;SDS011;32676;52.630;4.896;2023-06-26T01:50:43;18.88;;;5.65;;
46941;SDS011;32676;52.630;4.896;2023-06-26T01:53:11;19.30;;;5.60;;
46941;SDS011;32676;52.630;4.896;2023-06-26T01:55:44;18.27;;;7.20;;
46941;SDS011;32676;52.630;4.896;2023-06-26T01:58:14;15.75;;;5.03;;
46941;SDS011;32676;52.630;4.896;2023-06-26T02:00:42;17.30;;;5.70;;
46941;SDS011;32676;52.630;4.896;2023-06-26T02:03:09;17.83;;;6.25;;
46941;SDS011;32676;52.630;4.896;2023-06-26T02:05:35;18.75;;;6.43;;
46941;SDS011;32676;52.630;4.896;2023-06-26T02:08:02;15.63;;;5.65;;
46941;SDS011;32676;52.630;4.896;2023-06-26T02:10:29;18.80;;;5.80;;
46941;SDS011;32676;52.630;4.896;2023-06-26T02:12:55;23.33;;;5.60;;
46941;SDS011;32676;52.630;4.896;2023-06-26T02:15:23;24.15;;;6.78;;
46941;SDS011;32676;52.630;4.896;2023-06-26T02:17:50;24.20;;;5.70;;
46941;SDS011;32676;52.630;4.896;2023-06-26T02:20:16;29.58;;;6.20;;
46941;SDS011;32676;52.630;4.896;2023-06-26T02:22:43;17.80;;;6.88;;
46941;SDS011;32676;52.630;4.896;2023-06-26T02:25:09;19.77;;;6.03;;
46941;SDS011;32676;52.630;4.896;2023-06-26T02:27:37;21.35;;;5.28;;
46941;SDS011;32676;52.630;4.896;2023-06-26T02:30:04;19.33;;;6.55;;
46941;SDS011;32676;52.630;4.896;2023-06-26T02:32:32;17.83;;;5.43;;
46941;SDS011;32676;52.630;4.896;2023-06-26T02:34:59;20.63;;;5.93;;
46941;SDS011;32676;52.630;4.896;2023-06-26T02:37:25;21.77;;;5.30;;
46941;SDS011;32676;52.630;4.896;2023-06-26T02:39:52;14.00;;;5.38;;
46941;SDS011;32676;52.630;4.896;2023-06-26T02:42:18;12.68;;;5.03;;
46941;SDS011;32676;52.630;4.896;2023-06-26T02:44:45;17.80;;;5.18;;
46941;SDS011;32676;52.630;4.896;2023-06-26T02:47:11;10.88;;;4.47;;
46941;SDS011;32676;52.630;4.896;2023-06-26T02:49:39;17.98;;;4.95;;
46941;SDS011;32676;52.630;4.896;2023-06-26T02:52:05;14.73;;;5.05;;
46941;SDS011;32676;52.630;4.896;2023-06-26T02:54:32;12.73;;;4.22;;
46941;SDS011;32676;52.630;4.896;2023-06-26T02:56:59;16.25;;;5.25;;
46941;SDS011;32676;52.630;4.896;2023-06-26T02:59:25;17.38;;;5.25;;
46941;SDS011;32676;52.630;4.896;2023-06-26T03:01:52;15.38;;;5.07;;
46941;SDS011;32676;52.630;4.896;2023-06-26T03:04:18;12.43;;;4.82;;
46941;SDS011;32676;52.630;4.896;2023-06-26T03:06:47;10.77;;;4.70;;
46941;SDS011;32676;52.630;4.896;2023-06-26T03:09:14;11.57;;;3.75;;
46941;SDS011;32676;52.630;4.896;2023-06-26T03:11:41;10.43;;;3.83;;
46941;SDS011;32676;52.630;4.896;2023-06-26T03:14:07;14.10;;;4.78;;
46941;SDS011;32676;52.630;4.896;2023-06-26T03:16:34;10.10;;;3.20;;
46941;SDS011;32676;52.630;4.896;2023-06-26T03:19:00;9.85;;;3.45;;
46941;SDS011;32676;52.630;4.896;2023-06-26T03:21:27;10.68;;;3.40;;
46941;SDS011;32676;52.630;4.896;2023-06-26T03:23:55;14.65;;;3.50;;
46941;SDS011;32676;52.630;4.896;2023-06-26T03:26:21;12.88;;;3.83;;
46941;SDS011;32676;52.630;4.896;2023-06-26T03:28:52;9.38;;;3.88;;
46941;SDS011;32676;52.630;4.896;2023-06-26T03:31:18;10.27;;;3.63;;
46941;SDS011;32676;52.630;4.896;2023-06-26T03:33:45;8.95;;;3.35;;
46941;SDS011;32676;52.630;4.896;2023-06-26T03:36:12;12.48;;;3.47;;
46941;SDS011;32676;52.630;4.896;2023-06-26T03:38:38;7.15;;;3.17;;
46941;SDS011;32676;52.630;4.896;2023-06-26T03:41:06;9.15;;;3.30;;
46941;SDS011;32676;52.630;4.896;2023-06-26T03:43:32;7.68;;;2.25;;
46941;SDS011;32676;52.630;4.896;2023-06-26T03:45:59;11.38;;;2.45;;
46941;SDS011;32676;52.630;4.896;2023-06-26T03:48:25;9.98;;;2.78;;
46941;SDS011;32676;52.630;4.896;2023-06-26T03:50:52;12.65;;;2.80;;
46941;SDS011;32676;52.630;4.896;2023-06-26T03:53:19;10.38;;;3.30;;
46941;SDS011;32676;52.630;4.896;2023-06-26T03:55:45;8.52;;;2.50;;
46941;SDS011;32676;52.630;4.896;2023-06-26T03:58:13;9.02;;;2.25;;
46941;SDS011;32676;52.630;4.896;2023-06-26T04:00:40;11.30;;;2.72;;
46941;SDS011;32676;52.630;4.896;2023-06-26T04:03:06;10.48;;;2.30;;
46941;SDS011;32676;52.630;4.896;2023-06-26T04:05:34;13.75;;;2.95;;
46941;SDS011;32676;52.630;4.896;2023-06-26T04:08:00;13.70;;;2.55;;
46941;SDS011;32676;52.630;4.896;2023-06-26T04:10:27;12.82;;;3.40;;
46941;SDS011;32676;52.630;4.896;2023-06-26T04:12:54;7.07;;;2.35;;
46941;SDS011;32676;52.630;4.896;2023-06-26T04:15:22;11.23;;;2.33;;
46941;SDS011;32676;52.630;4.896;2023-06-26T04:17:48;5.60;;;2.00;;
46941;SDS011;32676;52.630;4.896;2023-06-26T04:20:15;8.35;;;2.22;;
46941;SDS011;32676;52.630;4.896;2023-06-26T04:22:41;10.32;;;2.90;;
46941;SDS011;32676;52.630;4.896;2023-06-26T04:25:08;7.22;;;2.25;;
46941;SDS011;32676;52.630;4.896;2023-06-26T04:27:36;10.40;;;2.58;;
46941;SDS011;32676;52.630;4.896;2023-06-26T04:30:03;6.88;;;2.10;;
46941;SDS011;32676;52.630;4.896;2023-06-26T04:32:32;9.88;;;1.98;;
46941;SDS011;32676;52.630;4.896;2023-06-26T04:34:58;6.90;;;2.10;;
46941;SDS011;32676;52.630;4.896;2023-06-26T04:37:25;13.07;;;3.08;;
46941;SDS011;32676;52.630;4.896;2023-06-26T04:39:52;8.35;;;2.28;;
46941;SDS011;32676;52.630;4.896;2023-06-26T04:42:18;8.48;;;3.00;;
46941;SDS011;32676;52.630;4.896;2023-06-26T04:44:46;12.27;;;2.80;;
46941;SDS011;32676;52.630;4.896;2023-06-26T04:47:13;10.43;;;1.90;;
46941;SDS011;32676;52.630;4.896;2023-06-26T04:49:41;10.73;;;2.63;;
46941;SDS011;32676;52.630;4.896;2023-06-26T04:52:10;6.10;;;1.98;;
46941;SDS011;32676;52.630;4.896;2023-06-26T04:54:38;8.25;;;2.30;;
46941;SDS011;32676;52.630;4.896;2023-06-26T04:57:04;12.07;;;2.78;;
46941;SDS011;32676;52.630;4.896;2023-06-26T04:59:31;19.17;;;2.40;;
46941;SDS011;32676;52.630;4.896;2023-06-26T05:01:58;7.85;;;2.55;;
46941;SDS011;32676;52.630;4.896;2023-06-26T05:04:24;9.88;;;2.53;;
46941;SDS011;32676;52.630;4.896;2023-06-26T05:06:52;5.45;;;2.05;;
46941;SDS011;32676;52.630;4.896;2023-06-26T05:09:19;14.43;;;2.70;;
46941;SDS011;32676;52.630;4.896;2023-06-26T05:11:45;7.65;;;3.05;;
46941;SDS011;32676;52.630;4.896;2023-06-26T05:14:12;7.78;;;2.10;;
46941;SDS011;32676;52.630;4.896;2023-06-26T05:16:38;10.88;;;1.95;;
46941;SDS011;32676;52.630;4.896;2023-06-26T05:19:05;13.15;;;2.25;;
46941;SDS011;32676;52.630;4.896;2023-06-26T05:21:31;5.65;;;1.50;;
46941;SDS011;32676;52.630;4.896;2023-06-26T05:24:01;6.00;;;1.60;;
46941;SDS011;32676;52.630;4.896;2023-06-26T05:26:29;7.00;;;2.05;;
46941;SDS011;32676;52.630;4.896;2023-06-26T05:28:56;5.38;;;1.42;;
46941;SDS011;32676;52.630;4.896;2023-06-26T05:31:23;11.80;;;1.60;;
46941;SDS011;32676;52.630;4.896;2023-06-26T05:33:50;8.85;;;1.73;;
46941;SDS011;32676;52.630;4.896;2023-06-26T05:36:21;8.38;;;1.38;;
46941;SDS011;32676;52.630;4.896;2023-06-26T05:38:50;6.63;;;1.55;;
46941;SDS011;32676;52.630;4.896;2023-06-26T05:41:18;9.05;;;1.90;;
46941;SDS011;32676;52.630;4.896;2023-06-26T05:43:45;7.32;;;1.45;;
46941;SDS011;32676;52.630;4.896;2023-06-26T05:46:11;8.77;;;2.38;;
46941;SDS011;32676;52.630;4.896;2023-06-26T05:48:38;15.95;;;2.00;;
46941;SDS011;32676;52.630;4.896;2023-06-26T05:51:06;6.05;;;1.73;;
46941;SDS011;32676;52.630;4.896;2023-06-26T05:53:33;4.00;;;1.63;;
46941;SDS011;32676;52.630;4.896;2023-06-26T05:56:00;11.82;;;3.28;;
46941;SDS011;32676;52.630;4.896;2023-06-26T05:58:28;12.73;;;2.30;;
46941;SDS011;32676;52.630;4.896;2023-06-26T06:00:56;8.15;;;1.75;;
46941;SDS011;32676;52.630;4.896;2023-06-26T06:03:22;9.88;;;2.08;;
46941;SDS011;32676;52.630;4.896;2023-06-26T06:05:49;7.22;;;2.50;;
46941;SDS011;32676;52.630;4.896;2023-06-26T06:08:15;12.68;;;2.55;;
46941;SDS011;32676;52.630;4.896;2023-06-26T06:10:42;13.98;;;2.33;;
46941;SDS011;32676;52.630;4.896;2023-06-26T06:13:08;5.65;;;2.05;;
46941;SDS011;32676;52.630;4.896;2023-06-26T06:15:36;12.50;;;2.13;;
46941;SDS011;32676;52.630;4.896;2023-06-26T06:18:03;12.15;;;2.50;;
46941;SDS011;32676;52.630;4.896;2023-06-26T06:20:30;8.07;;;1.77;;
46941;SDS011;32676;52.630;4.896;2023-06-26T06:22:56;17.17;;;2.38;;
46941;SDS011;32676;52.630;4.896;2023-06-26T06:25:22;9.10;;;2.08;;
46941;SDS011;32676;52.630;4.896;2023-06-26T06:27:49;6.75;;;1.70;;
46941;SDS011;32676;52.630;4.896;2023-06-26T06:30:15;10.02;;;1.77;;
46941;SDS011;32676;52.630;4.896;2023-06-26T06:32:43;8.23;;;1.92;;
46941;SDS011;32676;52.630;4.896;2023-06-26T06:35:11;11.70;;;2.20;;
46941;SDS011;32676;52.630;4.896;2023-06-26T06:37:37;5.60;;;1.92;;
46941;SDS011;32676;52.630;4.896;2023-06-26T06:40:04;10.23;;;2.10;;
46941;SDS011;32676;52.630;4.896;2023-06-26T06:42:32;12.70;;;2.55;;
46941;SDS011;32676;52.630;4.896;2023-06-26T06:44:59;10.52;;;1.95;;
46941;SDS011;32676;52.630;4.896;2023-06-26T06:47:25;23.75;;;3.55;;
46941;SDS011;32676;52.630;4.896;2023-06-26T06:49:53;15.07;;;2.22;;
46941;SDS011;32676;52.630;4.896;2023-06-26T06:52:20;16.23;;;3.20;;
46941;SDS011;32676;52.630;4.896;2023-06-26T06:54:50;11.30;;;1.90;;
46941;SDS011;32676;52.630;4.896;2023-06-26T06:57:17;10.07;;;1.95;;
46941;SDS011;32676;52.630;4.896;2023-06-26T06:59:44;13.10;;;2.78;;
46941;SDS011;32676;52.630;4.896;2023-06-26T07:02:11;7.82;;;2.35;;
46941;SDS011;32676;52.630;4.896;2023-06-26T07:04:37;13.02;;;2.15;;
46941;SDS011;32676;52.630;4.896;2023-06-26T07:07:05;14.02;;;2.47;;
46941;SDS011;32676;52.630;4.896;2023-06-26T07:09:32;17.95;;;2.55;;
46941;SDS011;32676;52.630;4.896;2023-06-26T07:11:58;13.25;;;2.10;;
46941;SDS011;32676;52.630;4.896;2023-06-26T07:14:25;10.43;;;2.10;;
46941;SDS011;32676;52.630;4.896;2023-06-26T07:16:51;8.15;;;1.85;;
46941;SDS011;32676;52.630;4.896;2023-06-26T07:19:18;13.82;;;2.17;;
46941;SDS011;32676;52.630;4.896;2023-06-26T07:21:44;10.23;;;1.50;;
46941;SDS011;32676;52.630;4.896;2023-06-26T07:24:13;8.18;;;1.80;;
46941;SDS011;32676;52.630;4.896;2023-06-26T07:26:39;10.02;;;2.58;;
46941;SDS011;32676;52.630;4.896;2023-06-26T07:29:06;12.25;;;2.95;;
46941;SDS011;32676;52.630;4.896;2023-06-26T07:31:33;22.20;;;3.28;;
46941;SDS011;32676;52.630;4.896;2023-06-26T07:33:59;8.80;;;2.08;;
46941;SDS011;32676;52.630;4.896;2023-06-26T07:36:26;10.52;;;2.22;;
46941;SDS011;32676;52.630;4.896;2023-06-26T07:38:53;10.93;;;1.70;;
46941;SDS011;32676;52.630;4.896;2023-06-26T07:41:20;9.70;;;2.38;;
46941;SDS011;32676;52.630;4.896;2023-06-26T07:43:47;8.65;;;1.70;;
46941;SDS011;32676;52.630;4.896;2023-06-26T07:46:13;9.18;;;2.00;;
46941;SDS011;32676;52.630;4.896;2023-06-26T07:48:40;9.93;;;1.40;;
46941;SDS011;32676;52.630;4.896;2023-06-26T07:51:06;15.25;;;2.00;;
46941;SDS011;32676;52.630;4.896;2023-06-26T07:53:33;13.65;;;1.65;;
46941;SDS011;32676;52.630;4.896;2023-06-26T07:55:59;10.48;;;1.73;;
46941;SDS011;32676;52.630;4.896;2023-06-26T07:58:27;9.27;;;1.90;;
46941;SDS011;32676;52.630;4.896;2023-06-26T08:00:54;14.65;;;1.98;;
46941;SDS011;32676;52.630;4.896;2023-06-26T08:03:20;6.60;;;1.23;;
46941;SDS011;32676;52.630;4.896;2023-06-26T08:05:48;8.73;;;1.55;;
46941;SDS011;32676;52.630;4.896;2023-06-26T08:08:15;10.35;;;2.05;;
46941;SDS011;32676;52.630;4.896;2023-06-26T08:10:41;6.05;;;1.15;;
46941;SDS011;32676;52.630;4.896;2023-06-26T08:13:08;7.07;;;1.38;;
46941;SDS011;32676;52.630;4.896;2023-06-26T08:15:36;8.48;;;2.63;;
46941;SDS011;32676;52.630;4.896;2023-06-26T08:18:02;7.05;;;1.08;;
46941;SDS011;32676;52.630;4.896;2023-06-26T08:20:29;13.38;;;2.75;;
46941;SDS011;32676;52.630;4.896;2023-06-26T08:22:55;12.30;;;2.58;;
46941;SDS011;32676;52.630;4.896;2023-06-26T08:25:22;9.98;;;1.38;;
46941;SDS011;32676;52.630;4.896;2023-06-26T08:27:48;13.93;;;1.92;;
46941;SDS011;32676;52.630;4.896;2023-06-26T08:30:17;14.85;;;2.88;;
46941;SDS011;32676;52.630;4.896;2023-06-26T08:32:45;8.05;;;1.13;;
46941;SDS011;32676;52.630;4.896;2023-06-26T08:35:11;9.88;;;1.17;;
46941;SDS011;32676;52.630;4.896;2023-06-26T08:37:38;11.70;;;2.22;;
46941;SDS011;32676;52.630;4.896;2023-06-26T08:40:05;8.45;;;1.50;;
46941;SDS011;32676;52.630;4.896;2023-06-26T08:42:33;3.47;;;1.30;;
46941;SDS011;32676;52.630;4.896;2023-06-26T08:44:59;6.47;;;1.25;;
46941;SDS011;32676;52.630;4.896;2023-06-26T08:47:26;13.88;;;1.65;;
46941;SDS011;32676;52.630;4.896;2023-06-26T08:49:56;7.78;;;1.77;;
46941;SDS011;32676;52.630;4.896;2023-06-26T08:52:30;12.82;;;2.03;;
46941;SDS011;32676;52.630;4.896;2023-06-26T08:55:01;22.13;;;1.85;;
46941;SDS011;32676;52.630;4.896;2023-06-26T08:57:32;8.02;;;1.75;;
46941;SDS011;32676;52.630;4.896;2023-06-26T08:59:59;9.32;;;1.83;;
46941;SDS011;32676;52.630;4.896;2023-06-26T09:02:26;8.95;;;1.85;;
46941;SDS011;32676;52.630;4.896;2023-06-26T09:04:55;6.25;;;1.40;;
46941;SDS011;32676;52.630;4.896;2023-06-26T09:07:22;10.57;;;2.00;;
46941;SDS011;32676;52.630;4.896;2023-06-26T09:09:48;5.45;;;1.73;;
46941;SDS011;32676;52.630;4.896;2023-06-26T09:12:15;6.43;;;1.10;;
46941;SDS011;32676;52.630;4.896;2023-06-26T09:14:42;5.65;;;1.05;;
46941;SDS011;32676;52.630;4.896;2023-06-26T09:17:08;5.28;;;0.90;;
46941;SDS011;32676;52.630;4.896;2023-06-26T09:19:36;6.15;;;1.90;;
46941;SDS011;32676;52.630;4.896;2023-06-26T09:22:05;7.00;;;1.20;;
46941;SDS011;32676;52.630;4.896;2023-06-26T09:24:37;6.05;;;1.15;;
46941;SDS011;32676;52.630;4.896;2023-06-26T09:27:04;10.38;;;1.30;;
46941;SDS011;32676;52.630;4.896;2023-06-26T09:29:31;9.02;;;0.80;;
46941;SDS011;32676;52.630;4.896;2023-06-26T09:31:59;8.32;;;1.40;;
46941;SDS011;32676;52.630;4.896;2023-06-26T09:34:29;7.95;;;1.20;;
46941;SDS011;32676;52.630;4.896;2023-06-26T09:36:57;9.55;;;1.35;;
46941;SDS011;32676;52.630;4.896;2023-06-26T09:39:27;13.35;;;1.35;;
46941;SDS011;32676;52.630;4.896;2023-06-26T09:41:56;11.57;;;1.50;;
46941;SDS011;32676;52.630;4.896;2023-06-26T09:44:23;14.65;;;1.35;;
46941;SDS011;32676;52.630;4.896;2023-06-26T09:46:50;15.60;;;1.73;;
46941;SDS011;32676;52.630;4.896;2023-06-26T09:49:16;9.63;;;1.88;;
46941;SDS011;32676;52.630;4.896;2023-06-26T09:51:43;10.43;;;1.42;;
46941;SDS011;32676;52.630;4.896;2023-06-26T09:54:09;13.15;;;1.48;;
46941;SDS011;32676;52.630;4.896;2023-06-26T09:56:37;10.07;;;2.72;;
46941;SDS011;32676;52.630;4.896;2023-06-26T09:59:04;9.45;;;1.45;;
46941;SDS011;32676;52.630;4.896;2023-06-26T10:01:32;9.65;;;1.48;;
46941;SDS011;32676;52.630;4.896;2023-06-26T10:03:59;8.43;;;1.08;;
46941;SDS011;32676;52.630;4.896;2023-06-26T10:06:27;8.05;;;1.38;;
46941;SDS011;32676;52.630;4.896;2023-06-26T10:08:57;14.05;;;1.83;;
46941;SDS011;32676;52.630;4.896;2023-06-26T10:11:27;18.58;;;1.73;;
46941;SDS011;32676;52.630;4.896;2023-06-26T10:14:01;17.92;;;2.17;;
46941;SDS011;32676;52.630;4.896;2023-06-26T10:16:30;7.43;;;1.45;;
46941;SDS011;32676;52.630;4.896;2023-06-26T10:19:01;15.43;;;3.00;;
46941;SDS011;32676;52.630;4.896;2023-06-26T10:21:31;16.08;;;2.00;;
46941;SDS011;32676;52.630;4.896;2023-06-26T10:24:00;9.75;;;1.52;;
46941;SDS011;32676;52.630;4.896;2023-06-26T10:26:29;9.23;;;1.40;;
46941;SDS011;32676;52.630;4.896;2023-06-26T10:28:57;5.13;;;1.17;;
46941;SDS011;32676;52.630;4.896;2023-06-26T10:31:26;9.52;;;1.05;;
46941;SDS011;32676;52.630;4.896;2023-06-26T10:33:54;8.35;;;1.50;;
46941;SDS011;32676;52.630;4.896;2023-06-26T10:36:26;13.43;;;1.70;;
46941;SDS011;32676;52.630;4.896;2023-06-26T10:38:56;8.45;;;1.63;;
46941;SDS011;32676;52.630;4.896;2023-06-26T10:41:23;9.55;;;0.88;;
46941;SDS011;32676;52.630;4.896;2023-06-26T10:43:51;8.48;;;1.90;;
46941;SDS011;32676;52.630;4.896;2023-06-26T10:46:34;10.27;;;1.25;;
46941;SDS011;32676;52.630;4.896;2023-06-26T10:49:14;8.38;;;1.15;;
46941;SDS011;32676;52.630;4.896;2023-06-26T10:51:45;12.63;;;1.45;;
46941;SDS011;32676;52.630;4.896;2023-06-26T10:54:13;10.90;;;1.65;;
46941;SDS011;32676;52.630;4.896;2023-06-26T10:56:41;9.85;;;1.83;;
46941;SDS011;32676;52.630;4.896;2023-06-26T10:59:15;6.97;;;1.10;;
46941;SDS011;32676;52.630;4.896;2023-06-26T11:01:45;11.85;;;1.42;;
46941;SDS011;32676;52.630;4.896;2023-06-26T11:04:13;6.93;;;1.42;;
46941;SDS011;32676;52.630;4.896;2023-06-26T11:06:41;12.30;;;1.35;;
46941;SDS011;32676;52.630;4.896;2023-06-26T11:09:13;9.32;;;1.92;;
46941;SDS011;32676;52.630;4.896;2023-06-26T11:11:57;9.82;;;1.65;;
46941;SDS011;32676;52.630;4.896;2023-06-26T11:14:27;8.60;;;1.10;;
46941;SDS011;32676;52.630;4.896;2023-06-26T11:16:56;13.75;;;1.20;;
46941;SDS011;32676;52.630;4.896;2023-06-26T11:19:24;10.55;;;1.23;;
46941;SDS011;32676;52.630;4.896;2023-06-26T11:21:52;5.60;;;1.00;;
46941;SDS011;32676;52.630;4.896;2023-06-26T11:24:24;4.57;;;1.13;;
46941;SDS011;32676;52.630;4.896;2023-06-26T11:26:51;11.75;;;1.70;;
46941;SDS011;32676;52.630;4.896;2023-06-26T11:29:18;7.50;;;1.40;;
46941;SDS011;32676;52.630;4.896;2023-06-26T11:31:45;6.40;;;1.27;;
46941;SDS011;32676;52.630;4.896;2023-06-26T11:34:13;6.03;;;1.30;;
46941;SDS011;32676;52.630;4.896;2023-06-26T11:36:41;8.85;;;1.10;;
46941;SDS011;32676;52.630;4.896;2023-06-26T11:39:11;8.35;;;1.13;;
46941;SDS011;32676;52.630;4.896;2023-06-26T11:41:38;9.27;;;1.38;;
46941;SDS011;32676;52.630;4.896;2023-06-26T11:44:06;8.23;;;1.17;;
46941;SDS011;32676;52.630;4.896;2023-06-26T11:46:34;15.55;;;2.67;;
46941;SDS011;32676;52.630;4.896;2023-06-26T11:49:02;8.82;;;1.20;;
46941;SDS011;32676;52.630;4.896;2023-06-26T11:51:31;10.00;;;1.42;;
46941;SDS011;32676;52.630;4.896;2023-06-26T11:54:00;10.40;;;1.48;;
46941;SDS011;32676;52.630;4.896;2023-06-26T11:56:27;9.45;;;1.25;;
46941;SDS011;32676;52.630;4.896;2023-06-26T11:58:57;9.75;;;1.95;;
46941;SDS011;32676;52.630;4.896;2023-06-26T12:01:26;7.03;;;1.42;;
46941;SDS011;32676;52.630;4.896;2023-06-26T12:03:57;4.63;;;1.10;;
46941;SDS011;32676;52.630;4.896;2023-06-26T12:06:25;4.07;;;0.85;;
46941;SDS011;32676;52.630;4.896;2023-06-26T12:08:53;12.52;;;1.23;;
46941;SDS011;32676;52.630;4.896;2023-06-26T12:11:21;8.27;;;1.23;;
46941;SDS011;32676;52.630;4.896;2023-06-26T12:13:50;10.95;;;1.27;;
46941;SDS011;32676;52.630;4.896;2023-06-26T12:16:18;13.38;;;1.52;;
46941;SDS011;32676;52.630;4.896;2023-06-26T12:18:44;8.45;;;1.40;;
46941;SDS011;32676;52.630;4.896;2023-06-26T12:24:14;6.53;;;0.70;;
46941;SDS011;32676;52.630;4.896;2023-06-26T12:26:42;10.32;;;1.55;;
46941;SDS011;32676;52.630;4.896;2023-06-26T12:29:10;10.93;;;1.77;;
46941;SDS011;32676;52.630;4.896;2023-06-26T12:31:39;6.32;;;1.25;;
46941;SDS011;32676;52.630;4.896;2023-06-26T12:34:08;14.88;;;3.10;;
46941;SDS011;32676;52.630;4.896;2023-06-26T12:36:39;8.65;;;0.95;;
46941;SDS011;32676;52.630;4.896;2023-06-26T12:39:05;8.18;;;1.42;;
46941;SDS011;32676;52.630;4.896;2023-06-26T12:41:36;6.72;;;0.95;;
46941;SDS011;32676;52.630;4.896;2023-06-26T12:44:16;7.53;;;1.00;;
46941;SDS011;32676;52.630;4.896;2023-06-26T12:46:43;10.40;;;1.38;;
46941;SDS011;32676;52.630;4.896;2023-06-26T12:49:12;6.25;;;1.95;;
46941;SDS011;32676;52.630;4.896;2023-06-26T12:51:38;10.65;;;1.77;;
46941;SDS011;32676;52.630;4.896;2023-06-26T12:54:05;7.00;;;1.50;;
46941;SDS011;32676;52.630;4.896;2023-06-26T12:56:32;6.05;;;1.10;;
46941;SDS011;32676;52.630;4.896;2023-06-26T12:59:00;8.57;;;1.30;;
46941;SDS011;32676;52.630;4.896;2023-06-26T13:01:27;15.63;;;1.70;;
46941;SDS011;32676;52.630;4.896;2023-06-26T13:03:53;9.18;;;1.15;;
46941;SDS011;32676;52.630;4.896;2023-06-26T13:06:20;8.80;;;0.88;;
46941;SDS011;32676;52.630;4.896;2023-06-26T13:08:46;6.45;;;0.80;;
46941;SDS011;32676;52.630;4.896;2023-06-26T13:11:13;8.55;;;1.17;;
46941;SDS011;32676;52.630;4.896;2023-06-26T13:13:41;5.55;;;1.10;;
46941;SDS011;32676;52.630;4.896;2023-06-26T13:16:09;8.65;;;1.35;;
46941;SDS011;32676;52.630;4.896;2023-06-26T13:18:37;7.13;;;1.45;;
46941;SDS011;32676;52.630;4.896;2023-06-26T13:21:03;4.90;;;1.10;;
46941;SDS011;32676;52.630;4.896;2023-06-26T13:23:30;7.80;;;0.70;;
46941;SDS011;32676;52.630;4.896;2023-06-26T13:25:56;12.88;;;1.33;;
46941;SDS011;32676;52.630;4.896;2023-06-26T13:28:23;5.03;;;0.68;;
46941;SDS011;32676;52.630;4.896;2023-06-26T13:30:49;11.85;;;1.38;;
46941;SDS011;32676;52.630;4.896;2023-06-26T13:33:17;6.70;;;1.25;;
46941;SDS011;32676;52.630;4.896;2023-06-26T13:35:43;5.75;;;0.93;;
46941;SDS011;32676;52.630;4.896;2023-06-26T13:38:10;10.50;;;0.75;;
46941;SDS011;32676;52.630;4.896;2023-06-26T13:40:37;6.28;;;0.95;;
46941;SDS011;32676;52.630;4.896;2023-06-26T13:43:03;6.40;;;1.42;;
46941;SDS011;32676;52.630;4.896;2023-06-26T13:45:29;4.97;;;0.80;;
46941;SDS011;32676;52.630;4.896;2023-06-26T13:47:56;8.25;;;1.33;;
46941;SDS011;32676;52.630;4.896;2023-06-26T13:50:24;6.75;;;1.00;;
46941;SDS011;32676;52.630;4.896;2023-06-26T13:52:50;9.80;;;0.88;;
46941;SDS011;32676;52.630;4.896;2023-06-26T13:55:17;6.20;;;1.52;;
46941;SDS011;32676;52.630;4.896;2023-06-26T13:57:43;7.25;;;0.95;;
46941;SDS011;32676;52.630;4.896;2023-06-26T14:00:11;11.68;;;1.50;;
46941;SDS011;32676;52.630;4.896;2023-06-26T14:02:41;6.72;;;1.40;;
46941;SDS011;32676;52.630;4.896;2023-06-26T14:05:07;8.75;;;1.00;;
46941;SDS011;32676;52.630;4.896;2023-06-26T14:07:37;11.30;;;1.33;;
46941;SDS011;32676;52.630;4.896;2023-06-26T14:10:04;4.65;;;1.30;;
46941;SDS011;32676;52.630;4.896;2023-06-26T14:12:31;5.40;;;0.90;;
46941;SDS011;32676;52.630;4.896;2023-06-26T14:14:59;11.82;;;1.05;;
46941;SDS011;32676;52.630;4.896;2023-06-26T14:17:26;8.77;;;1.02;;
46941;SDS011;32676;52.630;4.896;2023-06-26T14:19:52;8.88;;;0.85;;
46941;SDS011;32676;52.630;4.896;2023-06-26T14:22:19;10.48;;;1.95;;
46941;SDS011;32676;52.630;4.896;2023-06-26T14:24:47;6.93;;;1.17;;
46941;SDS011;32676;52.630;4.896;2023-06-26T14:27:14;5.78;;;0.93;;
46941;SDS011;32676;52.630;4.896;2023-06-26T14:29:41;9.25;;;2.22;;
46941;SDS011;32676;52.630;4.896;2023-06-26T14:32:07;8.18;;;0.90;;
46941;SDS011;32676;52.630;4.896;2023-06-26T14:34:34;4.88;;;1.08;;
46941;SDS011;32676;52.630;4.896;2023-06-26T14:37:00;10.68;;;0.80;;
46941;SDS011;32676;52.630;4.896;2023-06-26T14:39:27;5.13;;;0.73;;
46941;SDS011;32676;52.630;4.896;2023-06-26T14:41:55;5.15;;;0.80;;
46941;SDS011;32676;52.630;4.896;2023-06-26T14:44:21;6.80;;;1.20;;
46941;SDS011;32676;52.630;4.896;2023-06-26T14:46:48;8.80;;;1.02;;
46941;SDS011;32676;52.630;4.896;2023-06-26T14:49:14;7.72;;;1.02;;